Upstream stations:
Downstream station:
SHEF ID: PTAO2 Poteau River at Poteau, OK
STATION TYPE:
Regulating: Stage = 20.00, Flow = 7385
PRECIP STAGE RIV-FLOW VOLTAGE BAT-LOAD
in ft cfs volt volt
Ccp-Rev Ccp-Rev Ccp-Rev Ccp-Rev Ccp-Rev
(US/Central)
07/01 00:00 0.00 2.14 85 12.65 12.49
07/01 01:00 0.00 2.14 85 12.57 12.49
07/01 02:00 0.00 2.13 83 12.65 12.49
07/01 03:00 0.00 2.13 83 12.65 12.49
07/01 04:00 0.00 2.13 83 12.65 12.49
07/01 05:00 0.00 2.12 82 12.57 12.49
07/01 06:00 0.00 2.12 82 12.57 12.49
07/01 07:00 0.00 2.13 83 12.65 12.49
07/01 08:00 0.00 2.12 82 13.29 13.05
07/01 09:00 0.00 2.12 82 14.00 13.21
07/01 10:00 0.00 2.11 80 13.44 13.21
07/01 11:00 0.00 2.11 80 13.53 13.53
07/01 12:00 0.00 2.11 80 13.44 13.53
07/01 13:00 0.00 2.10 79 13.84 13.60
07/01 14:00 0.00 2.10 79 13.84 13.60
07/01 15:00 0.00 2.09 77 13.92 13.21
07/01 16:00 0.00 2.09 77 13.92 13.44
07/01 17:00 0.13 2.11 80 13.84 13.13
07/01 18:00 0.00 2.12 82 13.76 13.13
07/01 19:00 0.00 2.11 80 14.08 13.13
07/01 20:00 0.00 2.11 80 12.97 12.97
07/01 21:00 0.00 2.11 80 12.73 12.65
07/01 22:00 0.00 2.12 82 12.65 12.57
07/01 23:00 0.00 2.12 82 12.65 12.49